createdAt,value
2022-09-13T00:01:03.542Z,93.92
2022-09-13T00:03:44.443Z,94.47
2022-09-13T00:06:18.763Z,95.31
2022-09-13T00:08:50.924Z,95.20
2022-09-13T00:11:24.964Z,95.46
2022-09-13T00:14:00.436Z,95.79
2022-09-13T00:16:32.398Z,95.36
2022-09-13T00:19:04.501Z,95.43
2022-09-13T00:21:36.877Z,94.94
2022-09-13T00:24:09.547Z,95.26
2022-09-13T00:26:41.209Z,95.72
2022-09-13T00:29:12.884Z,95.88
2022-09-13T00:31:44.817Z,95.89
2022-09-13T00:34:16.163Z,96.14
2022-09-13T00:36:47.938Z,96.80
2022-09-13T00:39:19.625Z,96.07
2022-09-13T00:41:51.664Z,96.08
2022-09-13T00:44:55.117Z,96.05
2022-09-13T00:47:27.578Z,95.68
2022-09-13T00:50:03.806Z,95.27
2022-09-13T00:52:38.644Z,94.83
2022-09-13T00:55:17.467Z,94.97
2022-09-13T00:57:50.242Z,95.23
2022-09-13T01:00:22.470Z,94.94
2022-09-13T01:02:59.156Z,94.91
2022-09-13T01:05:34.973Z,94.30
2022-09-13T01:08:12.672Z,94.25
2022-09-13T01:10:45.398Z,94.53
2022-09-13T01:13:20.605Z,94.56
2022-09-13T01:15:53.061Z,95.09
2022-09-13T01:18:25.266Z,94.54
2022-09-13T01:21:23.194Z,94.47
2022-09-13T01:24:29.795Z,95.73
2022-09-13T01:27:25.753Z,95.45
2022-09-13T01:30:13.831Z,94.86
2022-09-13T01:33:02.428Z,95.57
2022-09-13T01:35:48.150Z,95.61
2022-09-13T01:38:33.945Z,94.94
2022-09-13T01:41:14.693Z,95.19
2022-09-13T01:43:56.885Z,96.24
2022-09-13T01:46:39.313Z,95.58
2022-09-13T01:49:18.644Z,95.86
2022-09-13T01:51:57.491Z,95.00
2022-09-13T01:54:38.766Z,94.67
2022-09-13T01:57:18.626Z,94.20
2022-09-13T01:59:53.977Z,94.45
2022-09-13T02:02:32.514Z,94.39
2022-09-13T02:05:10.956Z,95.47
2022-09-13T02:07:45.882Z,96.88
2022-09-13T02:10:23.063Z,97.47
2022-09-13T02:12:59.057Z,96.44
2022-09-13T02:15:37.809Z,95.32
2022-09-13T02:18:14.302Z,94.76
2022-09-13T02:20:49.868Z,94.74
2022-09-13T02:23:25.170Z,94.01
2022-09-13T02:25:58.873Z,94.25
2022-09-13T02:28:35.240Z,94.74
2022-09-13T02:31:09.068Z,94.70
2022-09-13T02:33:46.242Z,95.34
2022-09-13T02:36:23.790Z,95.11
2022-09-13T02:38:59.677Z,94.67
2022-09-13T02:41:38.491Z,96.07
2022-09-13T02:44:15.056Z,97.50
2022-09-13T02:47:16.816Z,97.66
2022-09-13T02:50:00.769Z,97.92
2022-09-13T02:52:39.930Z,97.91
2022-09-13T02:55:21.210Z,97.59
2022-09-13T02:58:01.371Z,97.70
2022-09-13T03:00:33.384Z,98.58
2022-09-13T03:03:09.463Z,98.91
2022-09-13T03:05:41.616Z,98.64
2022-09-13T03:08:17.805Z,97.52
2022-09-13T03:11:00.151Z,97.29
2022-09-13T03:14:08.697Z,97.14
2022-09-13T03:16:53.396Z,98.45
2022-09-13T03:19:39.301Z,99.36
2022-09-13T03:22:29.085Z,99.13
2022-09-13T03:25:09.808Z,97.64
2022-09-13T03:27:52.358Z,97.58
2022-09-13T03:30:24.421Z,98.06
2022-09-13T03:33:05.353Z,97.47
2022-09-13T03:35:43.710Z,96.83
2022-09-13T03:38:18.336Z,96.61
2022-09-13T03:40:54.749Z,96.98
2022-09-13T03:43:35.538Z,97.81
2022-09-13T03:46:11.292Z,98.34
2022-09-13T03:48:45.027Z,99.10
2022-09-13T03:51:16.944Z,99.28
2022-09-13T03:53:56.392Z,99.12
2022-09-13T03:56:28.091Z,98.81
2022-09-13T03:58:59.937Z,98.07
2022-09-13T04:01:31.614Z,98.14
2022-09-13T04:04:03.607Z,98.57
2022-09-13T04:06:35.193Z,99.32
2022-09-13T04:09:06.854Z,99.39
2022-09-13T04:11:40.687Z,98.34
2022-09-13T04:14:12.349Z,97.87
2022-09-13T04:16:44.055Z,97.49
2022-09-13T04:19:15.681Z,97.59
2022-09-13T04:21:50.450Z,97.50
2022-09-13T04:24:25.425Z,97.03
2022-09-13T04:26:57.868Z,97.20
2022-09-13T04:29:31.729Z,97.62
2022-09-13T04:32:04.128Z,97.74
2022-09-13T04:34:35.888Z,97.98
2022-09-13T04:37:07.574Z,97.56
2022-09-13T04:39:39.509Z,97.35
2022-09-13T04:42:12.197Z,97.11
2022-09-13T04:44:44.987Z,97.74
2022-09-13T04:47:17.143Z,97.58
2022-09-13T04:49:49.492Z,98.12
2022-09-13T04:52:21.284Z,97.83
2022-09-13T04:54:52.908Z,98.46
2022-09-13T04:57:24.938Z,99.30
2022-09-13T04:59:56.624Z,98.21
2022-09-13T05:02:28.335Z,97.39
2022-09-13T05:05:00.159Z,97.11
2022-09-13T05:07:31.813Z,96.68
2022-09-13T05:10:03.601Z,96.64
2022-09-13T05:12:35.274Z,97.12
2022-09-13T05:15:09.532Z,97.78
2022-09-13T05:17:41.489Z,97.31
2022-09-13T05:20:13.896Z,96.95
2022-09-13T05:22:45.620Z,96.85
2022-09-13T05:25:17.902Z,96.29
2022-09-13T05:27:49.712Z,96.49
2022-09-13T05:30:21.672Z,96.43
2022-09-13T05:32:53.426Z,96.20
2022-09-13T05:35:27.292Z,96.23
2022-09-13T05:37:59.065Z,96.37
2022-09-13T05:40:31.233Z,96.25
2022-09-13T05:43:03.472Z,96.16
2022-09-13T05:45:35.415Z,95.96
2022-09-13T05:48:07.267Z,95.60
2022-09-13T05:50:58.726Z,95.35
2022-09-13T05:53:31.432Z,95.41
2022-09-13T05:56:03.915Z,95.40
2022-09-13T05:58:35.055Z,95.43
2022-09-13T06:01:07.160Z,95.21
2022-09-13T06:03:39.460Z,95.25
2022-09-13T06:06:11.298Z,95.14
2022-09-13T06:08:45.981Z,94.86
2022-09-13T06:11:18.425Z,94.83
2022-09-13T06:13:50.088Z,94.68
2022-09-13T06:16:23.422Z,94.08
2022-09-13T06:18:55.158Z,93.90
2022-09-13T06:21:29.360Z,93.08
2022-09-13T06:24:01.614Z,93.09
2022-09-13T06:26:33.629Z,92.93
2022-09-13T06:29:05.689Z,92.12
2022-09-13T06:31:39.061Z,91.44
2022-09-13T06:34:14.072Z,91.47
2022-09-13T06:36:46.389Z,91.10
2022-09-13T06:39:18.380Z,90.14
2022-09-13T06:41:50.074Z,89.51
2022-09-13T06:44:25.727Z,89.19
2022-09-13T06:46:57.323Z,89.17
2022-09-13T06:49:31.462Z,88.45
2022-09-13T06:52:03.458Z,88.38
2022-09-13T06:54:34.881Z,88.17
2022-09-13T06:57:06.982Z,88.02
2022-09-13T06:59:38.835Z,87.76
2022-09-13T07:02:11.932Z,87.28
2022-09-13T07:04:43.860Z,86.79
2022-09-13T07:07:15.645Z,86.32
2022-09-13T07:09:48.852Z,85.89
2022-09-13T07:12:20.886Z,85.17
2022-09-13T07:14:52.682Z,85.32
2022-09-13T07:17:25.313Z,84.95
2022-09-13T07:19:59.263Z,84.96
2022-09-13T07:22:31.141Z,85.25
2022-09-13T07:25:03.265Z,84.51
2022-09-13T07:27:34.989Z,84.15
2022-09-13T07:30:08.249Z,83.66
2022-09-13T07:32:39.898Z,82.82
2022-09-13T07:35:11.708Z,82.71
2022-09-13T07:37:46.728Z,82.99
2022-09-13T07:40:20.224Z,82.70
2022-09-13T07:42:51.849Z,81.94
2022-09-13T07:45:24.119Z,81.51
2022-09-13T07:47:56.402Z,81.40
2022-09-13T07:50:28.865Z,81.57
2022-09-13T07:53:01.083Z,80.39
2022-09-13T07:55:33.396Z,80.55
2022-09-13T07:58:05.061Z,80.41
2022-09-13T08:00:36.669Z,79.74
2022-09-13T08:03:08.727Z,79.00
2022-09-13T08:05:42.942Z,78.76
2022-09-13T08:08:15.042Z,78.51
2022-09-13T08:10:49.498Z,78.23
2022-09-13T08:13:21.736Z,77.38
2022-09-13T08:15:54.106Z,77.46
2022-09-13T08:18:25.956Z,77.32
2022-09-13T08:21:00.269Z,77.14
2022-09-13T08:23:34.153Z,76.65
2022-09-13T08:26:08.005Z,76.47
2022-09-13T08:28:41.143Z,76.04
2022-09-13T08:31:16.897Z,75.82
2022-09-13T08:33:49.627Z,75.51
2022-09-13T08:36:23.901Z,75.24
2022-09-13T08:38:57.769Z,75.07
2022-09-13T08:41:56.079Z,74.90
2022-09-13T08:44:31.298Z,74.95
2022-09-13T08:47:33.900Z,74.73
2022-09-13T08:50:15.591Z,74.82
2022-09-13T08:53:00.352Z,74.36
2022-09-13T08:55:41.873Z,74.21
2022-09-13T08:58:29.416Z,74.71
2022-09-13T09:01:08.507Z,74.74
2022-09-13T09:03:47.266Z,74.71
2022-09-13T09:06:20.997Z,75.01
2022-09-13T09:08:58.040Z,74.77
2022-09-13T09:11:37.904Z,73.83
2022-09-13T09:14:16.290Z,74.09
2022-09-13T09:16:53.557Z,73.42
2022-09-13T09:19:34.354Z,72.78
2022-09-13T09:22:14.669Z,72.37
2022-09-13T09:24:50.197Z,71.58
2022-09-13T09:27:23.204Z,71.22
2022-09-13T09:29:58.991Z,71.15
2022-09-13T09:32:59.256Z,71.49
2022-09-13T09:35:46.128Z,71.60
2022-09-13T09:38:32.621Z,71.84
2022-09-13T09:41:11.959Z,72.05
2022-09-13T09:43:47.978Z,71.98
2022-09-13T09:46:27.296Z,72.32
2022-09-13T09:49:25.899Z,72.48
2022-09-13T09:51:58.923Z,72.87
2022-09-13T09:54:35.030Z,72.59
2022-09-13T09:57:08.932Z,72.40
2022-09-13T09:59:40.731Z,72.51
2022-09-13T10:02:20.558Z,72.67
2022-09-13T10:05:02.517Z,72.22
2022-09-13T10:07:35.899Z,71.78
2022-09-13T10:10:21.023Z,71.56
2022-09-13T10:12:57.153Z,71.40
2022-09-13T10:15:34.748Z,71.50
2022-09-13T10:18:39.996Z,71.46
2022-09-13T10:21:21.381Z,71.02
2022-09-13T10:24:13.778Z,70.73
2022-09-13T10:26:45.741Z,70.63
2022-09-13T10:29:19.468Z,69.27
2022-09-13T10:31:55.265Z,69.16
2022-09-13T10:34:31.019Z,69.41
2022-09-13T10:37:05.496Z,70.07
2022-09-13T10:39:39.156Z,70.04
2022-09-13T10:42:13.098Z,69.00
2022-09-13T10:44:52.892Z,69.65
2022-09-13T10:47:29.830Z,69.93
2022-09-13T10:50:19.795Z,69.49
2022-09-13T10:52:53.427Z,69.19
2022-09-13T10:55:42.570Z,69.40
2022-09-13T10:58:20.162Z,69.40
2022-09-13T11:01:24.515Z,69.59
2022-09-13T11:04:24.866Z,70.08
2022-09-13T11:07:03.859Z,70.18
2022-09-13T11:09:42.626Z,69.72
2022-09-13T11:12:24.958Z,69.95
2022-09-13T11:15:08.920Z,70.14
2022-09-13T11:18:06.384Z,69.97
2022-09-13T11:20:46.686Z,70.09
2022-09-13T11:23:43.316Z,70.15
2022-09-13T11:26:42.001Z,70.72
2022-09-13T11:29:27.291Z,71.02
2022-09-13T11:32:09.362Z,70.79
2022-09-13T11:34:53.013Z,70.69
2022-09-13T11:37:45.951Z,71.33
2022-09-13T11:40:33.930Z,71.27
2022-09-13T11:43:28.187Z,71.47
2022-09-13T11:46:13.134Z,71.65
2022-09-13T11:49:10.259Z,71.40
2022-09-13T11:51:56.090Z,70.95
2022-09-13T11:54:40.717Z,70.78
2022-09-13T11:57:16.193Z,70.99
2022-09-13T11:59:52.772Z,70.98
2022-09-13T12:02:35.982Z,70.66
2022-09-13T12:05:22.566Z,70.63
2022-09-13T12:08:02.961Z,71.00
2022-09-13T12:10:40.042Z,71.59
2022-09-13T12:13:17.016Z,71.56
2022-09-13T12:15:52.490Z,71.54
2022-09-13T12:18:29.503Z,71.81
2022-09-13T12:21:09.342Z,71.43
2022-09-13T12:23:52.934Z,71.74
2022-09-13T12:26:29.620Z,71.46
2022-09-13T12:29:07.660Z,72.25
2022-09-13T12:31:39.335Z,72.71
2022-09-13T12:34:18.288Z,72.69
2022-09-13T12:37:05.154Z,72.29
2022-09-13T12:40:12.278Z,72.92
2022-09-13T12:43:11.358Z,72.88
2022-09-13T12:46:01.750Z,72.34
2022-09-13T12:49:13.903Z,72.02
2022-09-13T12:52:03.557Z,71.78
2022-09-13T12:54:55.345Z,72.09
2022-09-13T12:57:37.141Z,71.64
2022-09-13T13:00:24.585Z,71.53
2022-09-13T13:03:11.924Z,71.26
2022-09-13T13:05:47.341Z,71.95
2022-09-13T13:08:31.102Z,72.11
2022-09-13T13:11:09.032Z,71.79
2022-09-13T13:13:47.599Z,71.38
2022-09-13T13:16:29.525Z,70.99
2022-09-13T13:19:01.928Z,70.85
2022-09-13T13:21:38.041Z,70.38
2022-09-13T13:24:49.044Z,70.60
2022-09-13T13:27:48.705Z,70.22
2022-09-13T13:30:52.394Z,69.94
2022-09-13T13:33:27.633Z,69.68
2022-09-13T13:36:19.297Z,69.45
2022-09-13T13:38:55.798Z,69.31
2022-09-13T13:41:45.068Z,69.07
2022-09-13T13:44:52.026Z,69.22
2022-09-13T13:47:54.548Z,68.88
2022-09-13T13:50:26.376Z,68.95
2022-09-13T13:53:06.148Z,68.57
2022-09-13T13:55:46.889Z,68.01
2022-09-13T13:58:46.001Z,68.15
2022-09-13T14:01:22.613Z,67.98
2022-09-13T14:04:08.321Z,67.99
2022-09-13T14:06:49.900Z,68.46
2022-09-13T14:09:38.169Z,66.91
2022-09-13T14:12:25.858Z,67.59
2022-09-13T14:15:22.561Z,67.53
2022-09-13T14:18:28.777Z,67.12
2022-09-13T14:21:05.536Z,67.30
2022-09-13T14:23:37.495Z,67.68
2022-09-13T14:26:11.786Z,68.13
2022-09-13T14:28:44.711Z,68.75
2022-09-13T14:31:21.508Z,69.17
2022-09-13T14:33:53.934Z,69.61
2022-09-13T14:36:27.596Z,69.91
2022-09-13T14:39:01.732Z,70.35
2022-09-13T14:41:37.971Z,70.28
2022-09-13T14:44:28.341Z,69.71
2022-09-13T14:47:18.367Z,69.25
2022-09-13T14:49:53.627Z,69.15
2022-09-13T14:52:31.324Z,69.48
2022-09-13T14:55:09.848Z,69.67
2022-09-13T14:57:48.665Z,69.85
2022-09-13T15:00:25.543Z,70.08
2022-09-13T15:02:59.966Z,70.69
2022-09-13T15:05:35.016Z,71.06
2022-09-13T15:08:42.440Z,71.63
2022-09-13T15:11:28.062Z,71.72
2022-09-13T15:14:25.745Z,71.96
2022-09-13T15:17:07.574Z,72.29
2022-09-13T15:19:42.402Z,74.00
2022-09-13T15:22:25.324Z,74.69
2022-09-13T15:25:01.306Z,75.87
2022-09-13T15:27:45.134Z,77.45
2022-09-13T15:30:23.913Z,76.82
2022-09-13T15:33:17.674Z,76.60
2022-09-13T15:35:50.353Z,76.88
2022-09-13T15:38:27.153Z,76.77
2022-09-13T15:41:14.915Z,76.59
2022-09-13T15:43:49.005Z,77.70
2022-09-13T15:46:21.254Z,77.39
2022-09-13T15:48:56.442Z,77.20
2022-09-13T15:51:28.885Z,77.03
2022-09-13T15:54:00.660Z,77.66
2022-09-13T15:56:37.889Z,77.57
2022-09-13T15:59:10.117Z,77.82
2022-09-13T16:01:41.863Z,81.20
2022-09-13T16:04:14.093Z,82.69
2022-09-13T16:06:46.707Z,84.29
2022-09-13T16:09:22.204Z,84.02
2022-09-13T16:11:54.813Z,83.37
2022-09-13T16:14:25.021Z,85.59
2022-09-13T16:16:58.343Z,85.38
2022-09-13T16:19:29.956Z,86.00
2022-09-13T16:22:01.611Z,87.51
2022-09-13T16:24:33.249Z,87.65
2022-09-13T16:27:05.447Z,87.58
2022-09-13T16:29:37.172Z,88.91
2022-09-13T16:32:09.079Z,91.50
2022-09-13T16:34:41.465Z,92.03
2022-09-13T16:37:16.714Z,94.39
2022-09-13T16:39:49.052Z,94.48
2022-09-13T16:42:20.678Z,95.89
2022-09-13T16:44:52.446Z,98.03
2022-09-13T16:47:24.132Z,100.00
2022-09-13T16:49:55.947Z,100.00
2022-09-13T16:52:27.991Z,100.00
2022-09-13T16:55:00.029Z,100.00
2022-09-13T16:57:32.103Z,100.00
2022-09-13T17:00:08.501Z,100.00
2022-09-13T17:02:40.421Z,100.00
2022-09-13T17:05:12.745Z,100.00
2022-09-13T17:07:44.485Z,100.00
2022-09-13T17:10:16.168Z,100.00
2022-09-13T17:12:48.216Z,100.00
2022-09-13T17:15:20.221Z,100.00
2022-09-13T17:17:52.001Z,100.00
2022-09-13T17:20:23.870Z,100.00
2022-09-13T17:22:55.559Z,100.00
2022-09-13T17:25:27.261Z,100.00
2022-09-13T17:27:59.013Z,100.00
2022-09-13T17:30:31.052Z,100.00
2022-09-13T17:33:04.267Z,100.00
2022-09-13T17:35:36.686Z,100.00
2022-09-13T17:38:08.561Z,100.00
2022-09-13T17:40:41.501Z,100.00
2022-09-13T17:43:14.168Z,100.00
2022-09-13T17:45:44.565Z,100.00
2022-09-13T17:48:17.700Z,100.00
2022-09-13T17:50:49.533Z,100.00
2022-09-13T17:53:21.388Z,100.00
2022-09-13T17:55:54.220Z,100.00
2022-09-13T17:58:28.238Z,100.00
2022-09-13T18:01:08.787Z,100.00
2022-09-13T18:03:40.746Z,100.00
2022-09-13T18:06:14.492Z,100.00
2022-09-13T18:08:46.895Z,100.00
2022-09-13T18:11:22.342Z,100.00
2022-09-13T18:13:54.847Z,100.00
2022-09-13T18:16:28.473Z,100.00
2022-09-13T18:19:03.526Z,100.00
2022-09-13T18:21:35.711Z,100.00
2022-09-13T18:24:07.986Z,100.00
2022-09-13T18:26:39.662Z,100.00
2022-09-13T18:29:14.944Z,100.00
2022-09-13T18:31:47.059Z,100.00
2022-09-13T18:34:19.329Z,100.00
2022-09-13T18:36:50.510Z,100.00
2022-09-13T18:39:23.717Z,100.00
2022-09-13T18:41:56.214Z,100.00
2022-09-13T18:44:30.435Z,100.00
2022-09-13T18:47:04.888Z,100.00
2022-09-13T18:49:37.332Z,100.00
2022-09-13T18:52:11.222Z,100.00
2022-09-13T18:54:43.473Z,100.00
2022-09-13T18:57:15.353Z,100.00
2022-09-13T18:59:47.743Z,100.00
2022-09-13T19:02:20.040Z,100.00
2022-09-13T19:04:52.374Z,100.00
2022-09-13T19:07:24.293Z,100.00
2022-09-13T19:09:56.460Z,100.00
2022-09-13T19:12:28.575Z,100.00
2022-09-13T19:15:00.928Z,100.00
2022-09-13T19:17:31.479Z,100.00
2022-09-13T19:20:04.280Z,100.00
2022-09-13T19:22:36.446Z,100.00
2022-09-13T19:25:09.472Z,100.00
2022-09-13T19:27:41.328Z,100.00
2022-09-13T19:30:14.684Z,100.00
2022-09-13T19:32:46.465Z,100.00
2022-09-13T19:35:18.477Z,100.00
2022-09-13T19:37:50.237Z,100.00
2022-09-13T19:40:23.350Z,100.00
2022-09-13T19:42:55.146Z,100.00
2022-09-13T19:45:27.220Z,100.00
2022-09-13T19:48:37.225Z,100.00
2022-09-13T19:50:51.376Z,100.00
2022-09-13T19:53:35.516Z,100.00
2022-09-13T19:56:17.513Z,100.00
2022-09-13T19:58:49.997Z,100.00
2022-09-13T20:01:24.560Z,100.00
2022-09-13T20:03:58.271Z,100.00
2022-09-13T20:06:34.628Z,100.00
2022-09-13T20:09:08.168Z,100.00
2022-09-13T20:11:42.642Z,100.00
2022-09-13T20:14:17.387Z,100.00
2022-09-13T20:16:49.571Z,100.00
2022-09-13T20:19:40.641Z,100.00
2022-09-13T20:22:16.549Z,100.00
2022-09-13T20:24:48.937Z,100.00
2022-09-13T20:27:21.085Z,100.00
2022-09-13T20:29:52.968Z,100.00
2022-09-13T20:32:24.749Z,100.00
2022-09-13T20:34:56.387Z,100.00
2022-09-13T20:37:28.046Z,100.00
2022-09-13T20:40:03.197Z,100.00
2022-09-13T20:42:35.751Z,100.00
2022-09-13T20:45:09.002Z,100.00
2022-09-13T20:47:40.761Z,100.00
2022-09-13T20:50:13.383Z,100.00
2022-09-13T20:52:45.128Z,100.00
2022-09-13T20:55:17.225Z,100.00
2022-09-13T20:57:49.158Z,100.00
2022-09-13T21:00:21.105Z,100.00
2022-09-13T21:02:53.191Z,100.00
2022-09-13T21:05:24.894Z,100.00
2022-09-13T21:08:14.346Z,100.00
2022-09-13T21:10:56.482Z,100.00
2022-09-13T21:13:28.110Z,100.00
2022-09-13T21:16:05.209Z,100.00
2022-09-13T21:18:37.496Z,100.00
2022-09-13T21:21:10.324Z,100.00
2022-09-13T21:23:40.443Z,100.00
2022-09-13T21:26:16.342Z,100.00
2022-09-13T21:28:48.452Z,100.00
2022-09-13T21:31:24.999Z,100.00
2022-09-13T21:33:58.722Z,100.00
2022-09-13T21:36:31.660Z,100.00
2022-09-13T21:39:04.569Z,100.00
2022-09-13T21:41:34.667Z,100.00
2022-09-13T21:44:07.246Z,100.00
2022-09-13T21:46:40.887Z,100.00
2022-09-13T21:49:14.344Z,100.00
2022-09-13T21:51:47.635Z,100.00
2022-09-13T21:54:20.449Z,100.00
2022-09-13T21:56:54.742Z,100.00
2022-09-13T21:59:26.627Z,100.00
2022-09-13T22:01:58.551Z,100.00
2022-09-13T22:04:30.325Z,100.00
2022-09-13T22:07:01.985Z,100.00
2022-09-13T22:09:33.601Z,100.00
2022-09-13T22:12:05.532Z,100.00
2022-09-13T22:14:37.255Z,100.00
2022-09-13T22:17:08.940Z,100.00
2022-09-13T22:19:40.785Z,100.00
2022-09-13T22:22:12.531Z,100.00
2022-09-13T22:24:46.057Z,100.00
2022-09-13T22:27:17.868Z,100.00
2022-09-13T22:29:49.482Z,100.00
2022-09-13T22:32:23.315Z,100.00
2022-09-13T22:34:57.837Z,100.00
2022-09-13T22:37:29.659Z,100.00
2022-09-13T22:40:01.981Z,100.00
2022-09-13T22:42:33.662Z,100.00
2022-09-13T22:45:06.009Z,100.00
2022-09-13T22:47:37.738Z,100.00
2022-09-13T22:50:10.385Z,100.00
2022-09-13T22:52:41.942Z,100.00
2022-09-13T22:55:13.504Z,100.00
2022-09-13T22:57:45.117Z,100.00
2022-09-13T23:00:17.942Z,100.00
2022-09-13T23:02:49.596Z,100.00
2022-09-13T23:05:21.317Z,100.00
2022-09-13T23:07:52.980Z,100.00
2022-09-13T23:10:24.605Z,100.00
2022-09-13T23:12:57.695Z,100.00
2022-09-13T23:15:29.313Z,100.00
2022-09-13T23:18:01.097Z,100.00
2022-09-13T23:20:32.955Z,100.00
2022-09-13T23:23:05.186Z,100.00
2022-09-13T23:25:36.820Z,100.00
2022-09-13T23:28:09.040Z,100.00
2022-09-13T23:30:40.661Z,100.00
2022-09-13T23:33:12.739Z,100.00
2022-09-13T23:35:45.803Z,100.00
2022-09-13T23:38:17.662Z,100.00
2022-09-13T23:40:49.298Z,100.00
2022-09-13T23:43:20.813Z,100.00
2022-09-13T23:45:52.467Z,100.00
2022-09-13T23:48:24.657Z,100.00
2022-09-13T23:51:04.649Z,100.00
2022-09-13T23:53:37.578Z,100.00
2022-09-13T23:56:09.847Z,100.00
2022-09-13T23:58:42.097Z,100.00
